18. August 2022

Uhrzeit Code Wetter Temp. Sichtweite Wolkendecke Wind METAR/SPECI
20:20
L
18 °C 0 m - Var 000° 0 kt METAR ETNT 181820Z AUTO /////KT //// // ////// 18/15 Q1013 ///
19:20
V
19 °C 10 km+ - 340° 340° 7 kt METAR ETNT 181720Z 34007KT 9999 SCT015 19/16 Q1013 BLACKBLU+
18:20
V
19 °C 10 km+ - 340° 340° 7 kt METAR ETNT 181620Z 34007KT 9999 SCT025 19/16 Q1013 BLACKBLU+
17:20
M
20 °C 10 km+ 2.500 ft 340° 340° 7 kt METAR ETNT 181520Z 34007KT 9999 BKN025 20/17 Q1013 BLACKBLU
16:20
M
19 °C 10 km+ 1.200 ft 340° 340° 7 kt METAR ETNT 181420Z 34007KT 9999 BKN012 19/16 Q1013 BLACKGRN
15:20
M
19 °C 10 km+ 1.000 ft 340° 340° 6 kt METAR ETNT 181320Z 34006KT 9999 BKN010 19/16 Q1013 BLACKGRN
14:20
M
19 °C 8 km 1.000 ft 340° 340° 8 kt METAR ETNT 181220Z 34008KT 8000 SCT007 BKN010 19/17 Q1013 BLACKGRN
13:20
I
19 °C 8 km 800 ft 340° 340° 8 kt METAR ETNT 181120Z 34008KT 8000 BKN008 BKN011 19/17 Q1013 BLACKGRN
12:20
I
19 °C 8 km 700 ft 340° 340° 8 kt METAR ETNT 181020Z 34008KT 8000 BKN007 BKN010 19/17 Q1013 BLACKGRN
11:20
I
19 °C 8 km 700 ft 340° 340° 8 kt METAR ETNT 180920Z 34008KT 8000 BKN007 BKN010 19/18 Q1012 BLACKGRN
10:20
I
20 °C 8 km 700 ft 340° 340° 8 kt METAR ETNT 180820Z 34008KT 8000 BKN007 20/18 Q1012 BLACKGRN
09:20
I
19 °C 8 km 700 ft 330° 330° 8 kt METAR ETNT 180720Z 33008KT 8000 BKN007 19/18 Q1012 BLACKGRN
08:20
I
19 °C 8 km 700 ft 320° 320° 7 kt METAR ETNT 180620Z 32007KT 8000 FEW004 BKN007 19/19 Q1011 BLACKGRN
07:20
I
19 °C 6 km 800 ft 330° 330° 5 kt METAR ETNT 180520Z 33005KT 6000 -RADZ BKN008 BKN023 19/19 Q1011 BLACKGRN
07:06
I
19 °C 7 km 800 ft 330° 330° 6 kt METAR ETNT 180506Z 33006KT 7000 BKN008 BKN023 19/18 Q1011 BLACKGRN
06:20
M
19 °C 10 km+ 2.000 ft 310° 310° 4 kt METAR ETNT 180420Z 31004KT 9999 FEW007 BKN020 19/18 Q1011 BLACKWHT
05:20
L
19 °C 0 m - Var 000° 0 kt METAR ETNT 180320Z AUTO /////KT //// // ////// 19/18 Q1010 ///
04:20
L
19 °C 0 m - Var 000° 0 kt METAR ETNT 180220Z AUTO /////KT //// // ////// 19/18 Q1010 ///
03:20
L
19 °C 0 m - Var 000° 0 kt METAR ETNT 180120Z AUTO /////KT //// // ////// 19/18 Q1011 ///
02:20
L
18 °C 0 m - Var 000° 0 kt METAR ETNT 180020Z AUTO /////KT //// // ////// 18/17 Q1011 ///
01:20
L
18 °C 0 m - Var 000° 0 kt METAR ETNT 172320Z AUTO /////KT //// // ////// 18/17 Q1011 ///
00:20
L
18 °C 0 m - Var 000° 0 kt METAR ETNT 172220Z AUTO /////KT //// // ////// 18/18 Q1010 ///

17. August 2022

Uhrzeit Code Wetter Temp. Sichtweite Wolkendecke Wind METAR/SPECI
23:20
L
18 °C 0 m - Var 000° 0 kt METAR ETNT 172120Z AUTO /////KT //// // ////// 18/16 Q1011 ///
22:20
L
18 °C 0 m - Var 000° 0 kt METAR ETNT 172020Z AUTO /////KT //// // ////// 18/18 Q1011 ///
21:20
L
19 °C 0 m - Var 000° 0 kt METAR ETNT 171920Z AUTO /////KT //// // ////// 19/18 Q1011 ///
20:20
L
18 °C 0 m - Var 000° 0 kt METAR ETNT 171820Z AUTO /////KT //// // ////// 18/17 Q1011 ///
19:20
I
18 °C 4 km 1.200 ft 100° 100° 5 kt METAR ETNT 171720Z 10005KT 4000 -TSRA BR BKN012CB BKN055 18/17 Q1011 BLACKGRN
18:29
I
20 °C 4 km 1.200 ft 010° 010° 10 kt METAR ETNT 171629Z 01010KT 4000 -TSRA BR BKN012CB BKN160 20/17 Q1011 BLACKGRN
18:20
M
21 °C 5 km 1.200 ft 010° 010° 10 kt METAR ETNT 171620Z 01010KT 5000 -SHRA BKN012CB BKN160 21/18 Q1011 BLACKGRN
17:20
V
22 °C 10 km+ 16.000 ft 030° 030° 10 kt METAR ETNT 171520Z 03010KT 9999 FEW110 BKN160 22/19 Q1010 BLACKBLU
16:20
V
23 °C 10 km+ 15.000 ft 010° 010° 11 kt METAR ETNT 171420Z 01011KT 9999 FEW100 BKN150 23/19 Q1011 BLACKBLU
15:20
V
24 °C 10 km+ 15.000 ft 020° 020° 11 kt METAR ETNT 171320Z 02011KT 9999 FEW100 BKN150 24/19 Q1011 BLACKBLU
14:20
V
23 °C 10 km+ 15.000 ft 030° 030° 7 kt METAR ETNT 171220Z 03007KT 9999 FEW100 BKN150 23/19 Q1011 BLACKBLU
13:20
V
22 °C 8 km 13.000 ft 030° 030° 6 kt METAR ETNT 171120Z 03006KT 8000 FEW008 BKN130 22/19 Q1012 BLACKBLU
13:10
V
22 °C 8 km 12.000 ft 030° 030° 6 kt METAR ETNT 171110Z 03006KT 8000 FEW007 BKN120 22/19 Q1012 BLACKBLU
12:20
M
21 °C 6 km 11.000 ft 030° 030° 6 kt METAR ETNT 171020Z 03006KT 6000 FEW007 SCT080 BKN110 21/19 Q1011 BLACKWHT
11:44
M
21 °C 5 km 8.000 ft 020° 020° 5 kt METAR ETNT 170944Z 02005KT 5000 BR BKN080 BKN110 21/19 Q1012 BLACKWHT
11:20
I
20 °C 4,5 km 8.000 ft 030° 030° 4 kt METAR ETNT 170920Z 03004KT 4500 BR BKN080 BKN110 20/19 Q1012 BLACKGRN
10:20
I
20 °C 3,5 km 8.000 ft 060° 060° 3 kt METAR ETNT 170820Z 06003KT 3500 -RA BR BKN080 BKN100 20/19 Q1012 BLACKYLO
10:04
I
20 °C 3 km 8.000 ft 090° 090° 3 kt METAR ETNT 170804Z 09003KT 3000 -RA BR FEW009 BKN080 20/19 Q1012 BLACKYLO
09:44
I
20 °C 2 km 1.000 ft 080° 080° 2 kt METAR ETNT 170744Z 08002KT 2000 BR BKN010 20/19 Q1012 BLACKYLO
09:20
L
20 °C 1 km - 080° 080° 2 kt METAR ETNT 170720Z 08002KT 1000 BR FEW250 20/19 Q1011 BLACKAMB
08:20
L
19 °C 800 m - 080° 080° 1 kt METAR ETNT 170620Z 08001KT 0800 FG FEW250 19/19 Q1011 BLACKAMB
07:20
L
17 °C 800 m - 080° 080° 1 kt METAR ETNT 170520Z 08001KT 0800 FG FEW250 17/17 Q1011 BLACKAMB
06:20
L
15 °C 800 m - 080° 080° 1 kt METAR ETNT 170420Z 08001KT 0800 FG FEW250 15/15 Q1011 BLACKAMB
05:20
L
14 °C 0 m - Var 000° 0 kt METAR ETNT 170320Z AUTO /////KT //// // ////// 14/14 Q1010 ///
04:20
L
15 °C 0 m - Var 000° 0 kt METAR ETNT 170220Z AUTO /////KT //// // ////// 15/15 Q1011 ///
03:20
L
16 °C 0 m - Var 000° 0 kt METAR ETNT 170120Z AUTO /////KT //// // ////// 16/16 Q1011 ///
02:20
L
16 °C 0 m - Var 000° 0 kt METAR ETNT 170020Z AUTO /////KT //// // ////// 16/16 Q1011 ///
01:20
L
16 °C 0 m - Var 000° 0 kt METAR ETNT 162320Z AUTO /////KT //// // ////// 16/16 Q1011 ///
00:20
L
17 °C 0 m - Var 000° 0 kt METAR ETNT 162220Z AUTO /////KT //// // ////// 17/16 Q1011 ///

16. August 2022

Uhrzeit Code Wetter Temp. Sichtweite Wolkendecke Wind METAR/SPECI
23:20
L
18 °C 0 m - Var 000° 0 kt METAR ETNT 162120Z AUTO /////KT //// // ////// 18/17 Q1011 ///
22:20
L
18 °C 0 m - Var 000° 0 kt METAR ETNT 162020Z AUTO /////KT //// // ////// 18/17 Q1010 ///
21:20
L
20 °C 0 m - Var 000° 0 kt METAR ETNT 161920Z AUTO /////KT //// // ////// 20/18 Q1009 ///
20:20
L
22 °C 0 m - Var 000° 0 kt METAR ETNT 161820Z AUTO /////KT //// // ////// 22/18 Q1009 ///
19:20
V
23 °C 10 km+ 27.000 ft 310° 310° 8 kt METAR ETNT 161720Z 31008KT 9999 SCT160 BKN270 23/18 Q1008 BLACKBLU+
18:20
V
25 °C 10 km+ 27.000 ft 300° 300° 8 kt METAR ETNT 161620Z 30008KT 9999 FEW150 BKN270 25/19 Q1008 BLACKBLU+
17:20
V
27 °C 10 km+ - 300° 300° 7 kt METAR ETNT 161520Z 30007KT 9999 FEW060 SCT270 27/19 Q1008 BLACKBLU+
Ältere Daten

Wir und Dritte verfolgen dein Internetverhalten auf unserer Website mit Cookies. Wenn du fortfährst, gehen wir davon aus, dass du mit unserer Cookie-Richtlinie einverstanden bist. Mehr erfahren